Time;durP1;ratioP1;P1;durP2;ratioP2;P2;SDS_P1;SDS_P2;PMS_P1;PMS_P2;Temp;Humidity;BMP_temperature;BMP_pressure;BME280_temperature;BME280_humidity;BME280_pressure;Samples;Min_cycle;Max_cycle;Signal;HPM_P1;HPM_P2
2022/03/13 00:00:54;;;;;;;24.37;13.63;;;3.40;47.20;;;;;;5073051;28;20041;-74
2022/03/13 00:03:22;;;;;;;25.07;14.33;;;3.30;47.60;;;;;;5073222;28;20028;-66
2022/03/13 00:05:50;;;;;;;21.60;12.47;;;3.20;47.60;;;;;;5073121;28;20036;-66
2022/03/13 00:08:31;;;;;;;17.87;11.87;;;3.10;47.80;;;;;;5073159;28;20032;-73
2022/03/13 00:11:07;;;;;;;18.83;10.87;;;3.10;47.20;;;;;;5073444;28;20468;-66
2022/03/13 00:13:36;;;;;;;20.20;11.23;;;3.00;47.20;;;;;;5072897;28;20052;-73
2022/03/13 00:16:08;;;;;;;17.33;10.90;;;3.00;47.30;;;;;;5072619;28;20044;-66
2022/03/13 00:18:35;;;;;;;20.00;11.40;;;3.00;47.40;;;;;;5072477;28;20037;-66
2022/03/13 00:21:04;;;;;;;19.67;11.20;;;3.00;47.20;;;;;;5072563;28;20408;-66
2022/03/13 00:23:34;;;;;;;17.57;11.23;;;3.00;47.00;;;;;;5072758;28;20040;-66
2022/03/13 00:26:01;;;;;;;18.63;10.77;;;2.90;47.30;;;;;;5072819;28;20033;-73
2022/03/13 00:28:27;;;;;;;19.27;11.27;;;2.90;47.30;;;;;;5072440;28;20040;-70
2022/03/13 00:30:53;;;;;;;18.23;11.33;;;2.90;47.20;;;;;;5072474;28;20032;-73
2022/03/13 00:33:20;;;;;;;21.00;11.30;;;2.90;47.00;;;;;;5072596;28;20029;-73
2022/03/13 00:35:46;;;;;;;20.27;11.80;;;2.90;47.00;;;;;;5072670;28;20436;-73
2022/03/13 00:38:11;;;;;;;23.77;14.33;;;2.90;46.60;;;;;;5072277;28;20041;-66
2022/03/13 00:40:37;;;;;;;22.77;14.30;;;2.80;47.20;;;;;;5072395;28;20072;-66
2022/03/13 00:43:04;;;;;;;26.90;14.63;;;2.80;47.30;;;;;;5072684;28;20082;-66
2022/03/13 00:45:30;;;;;;;23.60;14.80;;;2.80;47.50;;;;;;5072760;28;20033;-66
2022/03/13 00:47:57;;;;;;;27.13;15.23;;;2.80;47.70;;;;;;5072626;28;20086;-66
2022/03/13 00:50:23;;;;;;;28.73;15.40;;;2.70;48.20;;;;;;5072648;28;20389;-66
2022/03/13 00:52:49;;;;;;;25.33;15.80;;;2.70;48.40;;;;;;5072442;28;20029;-66
2022/03/13 00:55:15;;;;;;;28.77;17.03;;;2.70;48.40;;;;;;5072403;28;20041;-73
2022/03/13 00:57:43;;;;;;;33.73;17.37;;;2.70;48.80;;;;;;5072497;28;20028;-71
2022/03/13 01:00:13;;;;;;;34.83;18.97;;;2.60;49.40;;;;;;5072427;28;20072;-74
2022/03/13 01:02:39;;;;;;;34.53;18.37;;;2.50;49.40;;;;;;5072584;28;20045;-66
2022/03/13 01:05:09;;;;;;;31.43;17.57;;;2.50;49.40;;;;;;5072185;28;20037;-67
2022/03/13 01:07:35;;;;;;;34.90;19.27;;;2.50;49.20;;;;;;5072148;28;20044;-66
2022/03/13 01:10:01;;;;;;;40.97;20.90;;;2.50;49.20;;;;;;5072457;28;20041;-65
2022/03/13 01:12:27;;;;;;;37.20;20.10;;;2.40;49.20;;;;;;5072183;28;20044;-74
2022/03/13 01:14:53;;;;;;;34.40;19.43;;;2.40;49.40;;;;;;5072663;28;20064;-66
2022/03/13 01:17:20;;;;;;;32.50;19.70;;;2.30;49.30;;;;;;5072408;28;20029;-73
2022/03/13 01:19:46;;;;;;;32.97;20.17;;;2.30;49.60;;;;;;5071923;28;20052;-66
2022/03/13 01:22:12;;;;;;;37.50;19.97;;;2.20;50.00;;;;;;5072463;28;20037;-67
2022/03/13 01:24:43;;;;;;;35.97;20.70;;;2.20;50.60;;;;;;5072458;28;20495;-66
2022/03/13 01:27:09;;;;;;;35.77;16.83;;;2.10;50.30;;;;;;5072311;28;20037;-66
2022/03/13 01:29:35;;;;;;;30.90;15.20;;;2.10;50.10;;;;;;5072349;28;20111;-74
2022/03/13 01:32:01;;;;;;;27.63;14.67;;;2.10;49.80;;;;;;5071933;28;20133;-71
2022/03/13 01:34:34;;;;;;;31.27;15.47;;;2.10;49.80;;;;;;5072209;28;20040;-66
2022/03/13 01:37:04;;;;;;;;;;;2.10;49.40;;;;;;5072515;28;20043;-66
2022/03/13 01:39:30;;;;;;;33.17;17.37;;;2.10;49.40;;;;;;5072675;28;19974;-66
2022/03/13 01:41:56;;;;;;;35.00;18.03;;;2.00;49.40;;;;;;5075637;28;20460;-66
2022/03/13 01:44:22;;;;;;;31.43;17.60;;;2.00;49.70;;;;;;5075266;28;20060;-70
2022/03/13 01:46:48;;;;;;;27.57;17.00;;;1.90;50.40;;;;;;5075341;28;20044;-66
2022/03/13 01:49:13;;;;;;;28.40;16.37;;;1.90;50.90;;;;;;5075297;28;20040;-66
2022/03/13 01:51:39;;;;;;;25.17;15.20;;;1.90;50.50;;;;;;5075396;28;20439;-65
2022/03/13 01:54:11;;;;;;;25.97;15.50;;;1.80;50.70;;;;;;5075461;28;20036;-72
2022/03/13 01:56:37;;;;;;;29.33;17.37;;;1.80;50.60;;;;;;5075100;28;20039;-68
2022/03/13 01:59:06;;;;;;;31.57;16.23;;;1.90;50.00;;;;;;5072712;28;20174;-66
2022/03/13 02:01:32;;;;;;;30.43;16.70;;;1.90;50.20;;;;;;5072555;28;20472;-65
2022/03/13 02:03:58;;;;;;;34.33;20.10;;;1.90;50.20;;;;;;5072862;28;20083;-73
2022/03/13 02:06:25;;;;;;;36.80;20.03;;;1.90;50.30;;;;;;5074531;28;20036;-66
2022/03/13 02:08:51;;;;;;;31.23;19.33;;;1.80;50.50;;;;;;5075075;28;20036;-66
2022/03/13 02:11:19;;;;;;;35.70;19.60;;;1.80;50.70;;;;;;5075289;28;20037;-72
2022/03/13 02:13:54;;;;;;;35.50;19.13;;;1.80;50.90;;;;;;5074388;28;20060;-66
2022/03/13 02:16:21;;;;;;;29.80;18.07;;;1.70;50.70;;;;;;5074977;28;20037;-66
2022/03/13 02:18:52;;;;;;;42.70;17.87;;;1.70;50.70;;;;;;5075065;28;20024;-66
2022/03/13 02:21:23;;;;;;;28.87;16.50;;;1.60;50.90;;;;;;5075168;28;20072;-66
2022/03/13 02:23:49;;;;;;;31.40;16.80;;;1.60;50.80;;;;;;5075234;28;20044;-66
2022/03/13 02:26:15;;;;;;;33.67;16.87;;;1.70;50.60;;;;;;5075014;28;20037;-65
2022/03/13 02:28:53;;;;;;;30.43;17.37;;;1.60;50.60;;;;;;5074459;28;20441;-73
2022/03/13 02:31:30;;;;;;;31.37;15.73;;;1.60;50.60;;;;;;5075053;28;20386;-65
2022/03/13 02:33:57;;;;;;;27.53;16.07;;;1.60;50.60;;;;;;5074709;28;20511;-67
2022/03/13 02:36:27;;;;;;;28.90;16.10;;;1.50;50.90;;;;;;5074204;28;20058;-67
2022/03/13 02:38:53;;;;;;;22.13;12.60;;;1.50;50.90;;;;;;5074350;28;20211;-67
2022/03/13 02:41:19;;;;;;;20.27;12.40;;;1.50;50.50;;;;;;5074484;28;20043;-73
2022/03/13 02:43:45;;;;;;;26.80;12.50;;;1.40;50.10;;;;;;5074131;28;20090;-66
2022/03/13 02:46:22;;;;;;;19.27;11.77;;;1.40;49.90;;;;;;5074606;28;20508;-68
2022/03/13 02:48:50;;;;;;;22.10;12.67;;;1.40;49.60;;;;;;5074587;28;20064;-65
2022/03/13 02:51:16;;;;;;;26.73;14.47;;;1.40;49.70;;;;;;5073224;28;20108;-66
2022/03/13 02:53:42;;;;;;;25.40;15.03;;;1.40;49.70;;;;;;5074533;28;20350;-66
2022/03/13 02:56:08;;;;;;;27.87;15.63;;;1.40;49.90;;;;;;5074519;28;20045;-66
2022/03/13 02:58:34;;;;;;;34.00;15.37;;;1.30;50.20;;;;;;5074319;28;20036;-66
2022/03/13 03:01:00;;;;;;;29.33;15.73;;;1.30;50.50;;;;;;5074108;28;20045;-69
2022/03/13 03:03:26;;;;;;;27.47;15.23;;;1.20;50.70;;;;;;5074176;28;20491;-73
2022/03/13 03:05:53;;;;;;;23.80;13.57;;;1.20;50.90;;;;;;5074425;28;20032;-66
2022/03/13 03:08:19;;;;;;;23.10;13.73;;;1.10;51.20;;;;;;5074389;28;20435;-66
2022/03/13 03:10:45;;;;;;;26.50;15.30;;;1.00;51.60;;;;;;5073982;28;20040;-69
2022/03/13 03:13:13;;;;;;;35.93;13.80;;;0.90;51.60;;;;;;5073815;28;20135;-66
2022/03/13 03:15:39;;;;;;;41.90;15.17;;;0.80;51.80;;;;;;5074068;28;20029;-66
2022/03/13 03:18:07;;;;;;;31.87;13.63;;;0.80;52.00;;;;;;5073894;28;20393;-73
2022/03/13 03:20:34;;;;;;;30.73;13.73;;;0.70;51.90;;;;;;5073556;28;20040;-71
2022/03/13 03:23:00;;;;;;;31.10;15.40;;;0.70;52.00;;;;;;5074004;28;20500;-73
2022/03/13 03:25:27;;;;;;;31.67;15.30;;;0.60;52.30;;;;;;5073688;28;20041;-66
2022/03/13 03:27:55;;;;;;;25.50;14.10;;;0.60;52.20;;;;;;5073919;28;20032;-66
2022/03/13 03:30:26;;;;;;;27.73;14.37;;;0.70;51.90;;;;;;5073742;28;20119;-66
2022/03/13 03:32:53;;;;;;;23.73;13.87;;;0.70;51.60;;;;;;5073513;28;20060;-66
2022/03/13 03:35:23;;;;;;;29.40;14.87;;;0.70;51.30;;;;;;5073327;28;20036;-73
2022/03/13 03:37:50;;;;;;;26.80;13.47;;;0.70;51.40;;;;;;5073420;28;20059;-73
2022/03/13 03:40:16;;;;;;;26.93;14.60;;;0.70;51.50;;;;;;5073466;28;20046;-72
2022/03/13 03:42:43;;;;;;;24.23;13.23;;;0.70;52.00;;;;;;5073611;28;20033;-66
2022/03/13 03:45:10;;;;;;;26.93;14.07;;;0.70;51.40;;;;;;5073171;28;20060;-66
2022/03/13 03:47:35;;;;;;;26.30;15.47;;;0.70;51.10;;;;;;5073238;28;20523;-66
2022/03/13 03:50:02;;;;;;;23.43;14.10;;;0.70;51.00;;;;;;5073192;28;20063;-66
2022/03/13 03:52:28;;;;;;;25.87;14.27;;;0.70;51.10;;;;;;5073060;28;20037;-65
2022/03/13 03:54:53;;;;;;;24.93;13.63;;;0.70;50.70;;;;;;5073465;28;20082;-66
2022/03/13 03:57:19;;;;;;;23.83;13.93;;;0.70;50.60;;;;;;5073080;28;20111;-66
2022/03/13 03:59:45;;;;;;;24.00;13.67;;;0.70;50.70;;;;;;5073021;28;20131;-66
2022/03/13 04:02:12;;;;;;;23.07;13.60;;;0.70;50.90;;;;;;5072805;28;20033;-67
2022/03/13 04:04:39;;;;;;;26.97;14.20;;;0.70;50.80;;;;;;5072994;28;20048;-66
2022/03/13 04:07:05;;;;;;;24.63;13.37;;;0.60;50.90;;;;;;5073267;28;20032;-66
2022/03/13 04:09:31;;;;;;;25.97;14.23;;;0.60;50.90;;;;;;5072851;28;20033;-69
2022/03/13 04:11:57;;;;;;;25.10;13.90;;;0.60;50.70;;;;;;5073205;28;20094;-74
2022/03/13 04:14:23;;;;;;;27.23;14.53;;;0.60;50.50;;;;;;5072798;28;20044;-66
2022/03/13 04:16:51;;;;;;;24.37;13.80;;;0.70;50.60;;;;;;5073119;28;20044;-67
2022/03/13 04:19:17;;;;;;;22.90;14.00;;;0.70;50.60;;;;;;5072724;28;20101;-66
2022/03/13 04:21:42;;;;;;;30.10;13.40;;;0.70;50.50;;;;;;5072933;28;20426;-66
2022/03/13 04:24:11;;;;;;;25.70;13.83;;;0.70;50.40;;;;;;5072805;28;20170;-66
2022/03/13 04:26:39;;;;;;;28.77;13.70;;;0.70;50.70;;;;;;5072887;28;20114;-66
2022/03/13 04:29:06;;;;;;;26.10;13.27;;;0.60;51.50;;;;;;5072733;28;20118;-65
2022/03/13 04:31:35;;;;;;;23.87;13.23;;;0.60;51.10;;;;;;5072516;28;20473;-66
2022/03/13 04:34:00;;;;;;;30.03;13.97;;;0.50;51.40;;;;;;5072685;28;20042;-73
2022/03/13 04:36:28;;;;;;;25.93;14.03;;;0.50;51.30;;;;;;5072840;28;20020;-67
2022/03/13 04:38:54;;;;;;;24.37;14.80;;;0.50;51.80;;;;;;5072756;28;20048;-66
2022/03/13 04:41:20;;;;;;;22.83;13.73;;;0.50;51.60;;;;;;5072503;28;20041;-73
2022/03/13 04:43:46;;;;;;;24.90;13.50;;;0.50;51.80;;;;;;5072614;28;20062;-65
2022/03/13 04:46:11;;;;;;;24.57;13.57;;;0.40;52.20;;;;;;5072748;28;20028;-72
2022/03/13 04:48:38;;;;;;;26.77;14.07;;;0.40;52.10;;;;;;5072818;28;20032;-66
2022/03/13 04:51:03;;;;;;;24.33;13.37;;;0.30;52.30;;;;;;5072621;28;20067;-67
2022/03/13 04:53:29;;;;;;;20.70;12.67;;;0.30;52.30;;;;;;5072601;28;20064;-65
2022/03/13 04:55:56;;;;;;;24.50;11.97;;;0.30;52.40;;;;;;5072576;28;20075;-66
2022/03/13 04:58:21;;;;;;;20.50;12.80;;;0.20;52.20;;;;;;5072501;28;20054;-67
2022/03/13 05:00:47;;;;;;;21.77;11.80;;;0.20;52.20;;;;;;5072618;28;20389;-72
2022/03/13 05:03:14;;;;;;;21.27;12.17;;;0.20;52.30;;;;;;5072746;28;20024;-66
2022/03/13 05:05:40;;;;;;;19.80;12.10;;;0.20;52.10;;;;;;5072395;28;20404;-65
2022/03/13 05:08:09;;;;;;;17.80;11.10;;;0.20;52.20;;;;;;5054378;28;20055;-65
2022/03/13 05:10:36;;;;;;;20.40;11.07;;;0.10;53.60;;;;;;5072406;28;20060;-65
2022/03/13 05:13:03;;;;;;;27.07;12.80;;;-0.10;54.40;;;;;;5072186;28;20049;-65
2022/03/13 05:15:29;;;;;;;17.60;10.23;;;-0.10;53.80;;;;;;5074783;28;20037;-66
2022/03/13 05:17:55;;;;;;;17.33;10.23;;;-0.10;53.40;;;;;;5076329;28;20032;-66
2022/03/13 05:20:20;;;;;;;18.40;9.93;;;-0.10;53.40;;;;;;5075863;28;20468;-66
2022/03/13 05:22:46;;;;;;;18.60;9.67;;;-0.10;53.30;;;;;;5076057;28;20116;-66
2022/03/13 05:25:12;;;;;;;19.67;10.03;;;-0.10;52.80;;;;;;5076017;28;20064;-66
2022/03/13 05:27:37;;;;;;;18.00;11.03;;;-0.10;52.80;;;;;;5075926;28;20029;-66
2022/03/13 05:30:04;;;;;;;17.10;10.23;;;-0.10;52.70;;;;;;5075867;28;20033;-65
2022/03/13 05:32:29;;;;;;;22.10;11.53;;;0.00;52.60;;;;;;5075987;28;20039;-66
2022/03/13 05:34:57;;;;;;;24.73;12.30;;;0.00;52.50;;;;;;5075754;28;20395;-73
2022/03/13 05:37:24;;;;;;;18.47;11.57;;;0.00;52.40;;;;;;5075970;28;20058;-66
2022/03/13 05:39:50;;;;;;;21.63;12.00;;;0.00;52.40;;;;;;5075919;28;20549;-66
2022/03/13 05:42:16;;;;;;;19.47;10.77;;;-0.10;52.60;;;;;;5075626;28;20028;-73
2022/03/13 05:44:42;;;;;;;21.77;11.70;;;-0.20;52.70;;;;;;5075828;28;20542;-73
2022/03/13 05:47:07;;;;;;;26.07;12.10;;;-0.20;53.10;;;;;;5075387;28;20069;-65
2022/03/13 05:49:34;;;;;;;21.27;11.50;;;-0.20;53.20;;;;;;5075418;28;20031;-66
2022/03/13 05:52:00;;;;;;;21.63;11.93;;;-0.30;53.50;;;;;;5075169;28;20140;-66
2022/03/13 05:54:26;;;;;;;22.73;11.83;;;-0.40;53.80;;;;;;5075588;28;20407;-66
2022/03/13 05:56:52;;;;;;;27.13;12.53;;;-0.40;53.70;;;;;;5075369;28;20108;-65
2022/03/13 05:59:18;;;;;;;26.10;13.00;;;-0.40;53.60;;;;;;5075477;28;20032;-66
2022/03/13 06:01:44;;;;;;;30.07;14.03;;;-0.40;53.90;;;;;;5075292;28;20033;-72
2022/03/13 06:04:10;;;;;;;33.63;16.07;;;-0.40;53.90;;;;;;5075191;28;20029;-66
2022/03/13 06:06:36;;;;;;;37.37;16.50;;;-0.40;54.20;;;;;;5075122;28;20442;-66
2022/03/13 06:09:02;;;;;;;35.60;17.93;;;-0.40;54.40;;;;;;5075107;28;20025;-72
2022/03/13 06:11:28;;;;;;;40.37;18.93;;;-0.40;54.20;;;;;;5075047;28;20098;-65
2022/03/13 06:13:54;;;;;;;41.43;19.27;;;-0.40;53.80;;;;;;5074882;28;20045;-66
2022/03/13 06:16:21;;;;;;;47.07;20.80;;;-0.30;54.20;;;;;;5075061;28;20063;-65
2022/03/13 06:18:47;;;;;;;34.40;17.83;;;-0.30;54.10;;;;;;5075043;28;20078;-66
2022/03/13 06:21:14;;;;;;;31.73;15.07;;;-0.20;54.00;;;;;;5074830;28;20123;-66
2022/03/13 06:23:39;;;;;;;36.87;15.13;;;-0.20;54.20;;;;;;5075094;28;20059;-66
2022/03/13 06:26:05;;;;;;;34.03;16.43;;;-0.10;53.80;;;;;;5074391;28;20072;-72
2022/03/13 06:28:33;;;;;;;24.53;12.80;;;0.00;54.30;;;;;;5074717;28;20389;-66
2022/03/13 06:31:01;;;;;;;25.23;12.17;;;0.10;54.30;;;;;;5074679;28;20115;-72
2022/03/13 06:33:28;;;;;;;26.50;11.97;;;0.30;54.20;;;;;;5075079;28;20033;-66
2022/03/13 06:35:54;;;;;;;27.00;13.10;;;0.40;53.80;;;;;;5074255;28;20520;-66
2022/03/13 06:38:20;;;;;;;27.67;13.83;;;0.50;54.00;;;;;;5074466;28;20116;-66
2022/03/13 06:40:45;;;;;;;22.07;12.57;;;0.60;53.60;;;;;;5074359;28;20485;-65
2022/03/13 06:43:11;;;;;;;25.37;12.93;;;0.70;53.50;;;;;;5075219;28;20473;-67
2022/03/13 06:45:37;;;;;;;23.83;12.53;;;0.80;53.50;;;;;;5075094;28;20036;-63
2022/03/13 06:48:02;;;;;;;21.07;11.60;;;0.90;52.40;;;;;;5074900;28;20063;-64
2022/03/13 06:50:28;;;;;;;20.50;10.63;;;1.00;52.00;;;;;;5074271;28;20113;-63
2022/03/13 06:52:55;;;;;;;19.07;9.33;;;1.10;50.70;;;;;;5074574;28;20131;-64
2022/03/13 06:55:22;;;;;;;21.13;10.10;;;1.20;50.30;;;;;;5074289;28;20484;-64
2022/03/13 06:57:49;;;;;;;18.53;9.83;;;1.30;49.10;;;;;;5074472;28;20029;-64
2022/03/13 07:00:16;;;;;;;26.27;11.33;;;1.40;48.90;;;;;;5074259;28;20051;-71
2022/03/13 07:02:41;;;;;;;26.87;10.97;;;1.60;48.90;;;;;;5073593;28;20067;-67
2022/03/13 07:05:08;;;;;;;17.80;11.47;;;1.60;49.90;;;;;;5073337;28;20033;-64
2022/03/13 07:07:33;;;;;;;22.80;12.23;;;1.80;50.10;;;;;;5073394;28;20032;-64
2022/03/13 07:09:59;;;;;;;21.73;13.03;;;1.90;49.80;;;;;;5073831;28;20055;-64
2022/03/13 07:12:26;;;;;;;22.50;13.23;;;1.90;50.20;;;;;;5073370;28;20041;-65
2022/03/13 07:14:57;;;;;;;23.03;12.70;;;2.10;50.70;;;;;;5073623;28;20044;-66
2022/03/13 07:17:23;;;;;;;20.97;12.37;;;2.10;50.80;;;;;;5069245;28;20055;-67
2022/03/13 07:19:49;;;;;;;25.40;13.87;;;2.30;50.10;;;;;;5069906;28;20606;-64
2022/03/13 07:22:15;;;;;;;19.23;12.93;;;2.40;50.60;;;;;;5071648;28;20056;-64
2022/03/13 07:24:43;;;;;;;18.70;12.50;;;2.50;50.70;;;;;;5073148;28;20102;-64
2022/03/13 07:48:13;;;;;;;17.87;10.60;;;3.70;47.00;;;;;;6196851;22;2308381;-64
2022/03/13 07:50:39;;;;;;;17.90;10.87;;;3.90;46.70;;;;;;6284592;22;20042;-64
2022/03/13 07:53:05;;;;;;;18.77;10.90;;;4.00;46.40;;;;;;6283583;22;20025;-69
2022/03/13 07:55:30;;;;;;;20.67;10.00;;;4.20;45.80;;;;;;6283910;22;20092;-73
2022/03/13 07:57:56;;;;;;;15.87;9.60;;;4.30;45.00;;;;;;6282286;22;19996;-71
2022/03/13 08:00:23;;;;;;;16.07;9.80;;;4.40;44.30;;;;;;6283663;22;20073;-74
2022/03/13 08:02:49;;;;;;;16.60;9.37;;;4.50;43.90;;;;;;6283997;22;20418;-65
2022/03/13 08:05:18;;;;;;;15.13;9.13;;;4.60;43.50;;;;;;6283948;22;20003;-65
2022/03/13 08:07:44;;;;;;;15.87;8.53;;;4.70;42.70;;;;;;6284557;22;20299;-72
2022/03/13 08:10:10;;;;;;;15.60;8.57;;;4.90;42.80;;;;;;6284258;22;20030;-67
2022/03/13 08:12:38;;;;;;;14.40;8.20;;;4.90;42.40;;;;;;6284825;22;20075;-72
2022/03/13 08:15:08;;;;;;;12.63;8.37;;;5.10;42.30;;;;;;6283918;22;20050;-65
2022/03/13 08:17:35;;;;;;;12.73;8.33;;;5.20;41.80;;;;;;6283703;22;20334;-65
2022/03/13 08:20:02;;;;;;;14.73;8.73;;;5.30;41.70;;;;;;6283393;22;20007;-66
2022/03/13 08:22:28;;;;;;;14.60;7.37;;;5.40;40.50;;;;;;6284232;22;20007;-75
2022/03/13 08:24:53;;;;;;;13.30;7.83;;;5.50;40.50;;;;;;6283609;22;20383;-64
2022/03/13 08:27:19;;;;;;;12.60;7.57;;;5.60;39.80;;;;;;6283979;22;20047;-72
2022/03/13 08:29:45;;;;;;;12.50;7.90;;;5.80;39.90;;;;;;6284649;22;20393;-65
2022/03/13 08:32:11;;;;;;;13.20;8.27;;;5.90;39.60;;;;;;6284178;22;20445;-66
2022/03/13 08:34:38;;;;;;;13.67;8.00;;;6.00;39.10;;;;;;6283981;22;20330;-65
2022/03/13 08:37:04;;;;;;;11.70;7.53;;;6.10;39.80;;;;;;6281875;22;20026;-65
2022/03/13 08:39:30;;;;;;;10.27;7.30;;;6.20;38.90;;;;;;6276828;22;19996;-65
2022/03/13 08:41:56;;;;;;;14.43;7.07;;;6.30;38.60;;;;;;6276798;22;19999;-65
2022/03/13 08:44:21;;;;;;;13.83;8.20;;;6.40;38.30;;;;;;6276394;22;20414;-65
2022/03/13 08:46:47;;;;;;;25.70;8.10;;;6.50;38.00;;;;;;6275046;22;20096;-65
2022/03/13 08:49:13;;;;;;;12.97;7.23;;;6.60;38.00;;;;;;6277319;22;20006;-65
2022/03/13 08:51:39;;;;;;;10.83;7.20;;;6.70;37.90;;;;;;6276863;22;20008;-65
2022/03/13 08:54:05;;;;;;;11.70;7.37;;;6.80;37.70;;;;;;6277393;22;20072;-64
2022/03/13 08:56:31;;;;;;;11.20;7.40;;;6.90;37.40;;;;;;6275697;22;20015;-69
2022/03/13 08:58:57;;;;;;;13.60;7.23;;;7.00;37.20;;;;;;6275745;22;20450;-65
2022/03/13 09:01:24;;;;;;;14.57;6.63;;;7.10;37.30;;;;;;6274900;22;20000;-66
2022/03/13 09:03:51;;;;;;;10.40;6.23;;;7.20;36.60;;;;;;6275079;22;20377;-68
2022/03/13 09:06:17;;;;;;;16.33;6.53;;;7.30;35.80;;;;;;6275856;22;20459;-65
2022/03/13 09:08:43;;;;;;;9.63;5.90;;;7.40;34.80;;;;;;6277041;22;19996;-64
2022/03/13 09:11:09;;;;;;;9.93;6.27;;;7.50;34.90;;;;;;6275498;22;20505;-64
2022/03/13 09:13:38;;;;;;;10.10;6.10;;;7.60;34.70;;;;;;6276403;22;20000;-72
2022/03/13 09:16:04;;;;;;;11.17;6.00;;;7.60;34.90;;;;;;6276509;22;20135;-64
2022/03/13 09:18:30;;;;;;;8.03;5.93;;;7.70;33.70;;;;;;6276609;22;20006;-64
2022/03/13 09:20:57;;;;;;;12.47;5.73;;;7.80;33.20;;;;;;6276265;22;20004;-64
2022/03/13 09:23:23;;;;;;;7.83;5.57;;;7.80;32.00;;;;;;6276783;22;19999;-64
2022/03/13 09:25:50;;;;;;;10.53;5.90;;;7.90;33.60;;;;;;6276721;22;20016;-63
2022/03/13 09:28:16;;;;;;;10.17;5.60;;;8.00;32.90;;;;;;6276375;22;20000;-65
2022/03/13 09:30:42;;;;;;;8.40;5.70;;;8.00;33.10;;;;;;6276705;22;20003;-65
2022/03/13 09:33:07;;;;;;;9.43;5.13;;;8.10;33.20;;;;;;6274861;22;20003;-66
2022/03/13 09:35:33;;;;;;;9.90;6.00;;;8.20;33.70;;;;;;6273523;22;20053;-64
2022/03/13 09:37:59;;;;;;;9.60;5.60;;;8.20;34.70;;;;;;6274762;22;20070;-65
2022/03/13 09:40:26;;;;;;;10.37;5.67;;;8.30;35.00;;;;;;6276513;22;20433;-64
2022/03/13 09:42:52;;;;;;;8.73;6.03;;;8.50;33.90;;;;;;6275181;22;20053;-64
2022/03/13 09:45:18;;;;;;;8.20;4.73;;;8.60;33.80;;;;;;6275845;22;20004;-64
2022/03/13 09:47:44;;;;;;;10.57;4.97;;;8.70;35.10;;;;;;6277091;22;20023;-64
2022/03/13 09:50:14;;;;;;;7.90;4.90;;;8.80;34.70;;;;;;6276099;22;20023;-64
2022/03/13 09:52:43;;;;;;;7.70;4.33;;;8.80;34.70;;;;;;6277054;22;20007;-64
2022/03/13 09:55:10;;;;;;;7.40;5.10;;;9.00;34.40;;;;;;6277655;22;20007;-64
2022/03/13 09:57:39;;;;;;;8.60;4.63;;;9.00;34.90;;;;;;6249030;22;20083;-64
2022/03/13 10:00:08;;;;;;;9.33;5.43;;;9.10;35.00;;;;;;6273421;22;20004;-64
2022/03/13 10:02:37;;;;;;;8.90;5.30;;;9.10;35.50;;;;;;6273304;22;20008;-65
2022/03/13 10:05:14;;;;;;;7.03;4.83;;;9.20;35.10;;;;;;6275005;22;20075;-63
2022/03/13 10:07:55;;;;;;;7.07;4.17;;;9.30;35.90;;;;;;6277107;22;20082;-64
2022/03/13 10:10:23;;;;;;;5.03;3.17;;;9.40;37.20;;;;;;6276871;22;20000;-64
2022/03/13 10:12:50;;;;;;;5.73;3.87;;;9.50;37.50;;;;;;6276459;22;20357;-64
2022/03/13 10:15:16;;;;;;;8.43;3.87;;;9.60;37.10;;;;;;6277039;22;19999;-63
2022/03/13 10:17:42;;;;;;;11.30;5.40;;;9.70;37.20;;;;;;6276975;22;19999;-64
2022/03/13 10:20:26;;;;;;;8.03;4.97;;;9.80;38.40;;;;;;6276429;22;20004;-64
2022/03/13 10:23:16;;;;;;;5.33;3.90;;;9.80;37.30;;;;;;6276903;22;20030;-64
2022/03/13 10:25:44;;;;;;;4.83;3.33;;;9.90;37.60;;;;;;6276495;22;20438;-64
2022/03/13 10:28:24;;;;;;;7.73;4.40;;;10.00;38.10;;;;;;6276440;22;20419;-63
2022/03/13 10:30:59;;;;;;;8.27;3.83;;;10.10;39.50;;;;;;6276646;22;20006;-64
2022/03/13 10:33:36;;;;;;;7.17;4.00;;;10.10;39.90;;;;;;6276957;22;20313;-64
2022/03/13 10:36:10;;;;;;;5.67;3.67;;;10.20;38.80;;;;;;6276825;22;19999;-63
2022/03/13 10:38:37;;;;;;;6.47;3.37;;;10.20;38.50;;;;;;6277045;22;20053;-64
2022/03/13 10:41:08;;;;;;;4.93;3.57;;;10.20;39.30;;;;;;6276582;22;20000;-64
2022/03/13 10:43:35;;;;;;;7.73;3.73;;;10.30;38.10;;;;;;6276328;22;20012;-63
2022/03/13 10:46:01;;;;;;;7.00;4.07;;;10.40;37.70;;;;;;6276626;22;20015;-64
2022/03/13 10:48:33;;;;;;;6.27;4.00;;;10.30;38.70;;;;;;6276676;22;20012;-64
2022/03/13 10:51:04;;;;;;;7.73;3.70;;;10.40;38.30;;;;;;6276851;22;20008;-64
2022/03/13 10:53:31;;;;;;;6.93;3.73;;;10.40;38.40;;;;;;6277199;22;20007;-64
2022/03/13 10:56:11;;;;;;;5.20;3.93;;;10.50;39.10;;;;;;6276446;22;20074;-64
2022/03/13 10:58:40;;;;;;;6.17;3.90;;;10.60;39.70;;;;;;6276567;22;20095;-63
2022/03/13 11:01:13;;;;;;;7.17;3.80;;;10.80;39.10;;;;;;6276384;22;20003;-63
2022/03/13 11:03:56;;;;;;;6.40;4.33;;;10.90;39.00;;;;;;6276385;22;19996;-63
2022/03/13 11:06:26;;;;;;;6.80;4.30;;;11.00;37.70;;;;;;6276585;22;20058;-64
2022/03/13 11:08:55;;;;;;;6.10;4.07;;;11.10;38.90;;;;;;6276450;22;20050;-71
2022/03/13 11:11:22;;;;;;;6.30;3.67;;;11.20;38.50;;;;;;6276901;22;20370;-62
2022/03/13 11:13:54;;;;;;;5.60;3.53;;;11.30;38.30;;;;;;6276612;22;19996;-73
2022/03/13 11:16:23;;;;;;;4.93;3.67;;;11.30;38.70;;;;;;6276672;22;20019;-73
2022/03/13 11:18:51;;;;;;;6.87;4.63;;;11.50;38.00;;;;;;6276665;22;20445;-63
2022/03/13 11:21:18;;;;;;;7.73;4.53;;;11.60;39.00;;;;;;6276504;22;20422;-65
2022/03/13 11:23:44;;;;;;;6.72;4.10;;;11.60;36.80;;;;;;6276375;22;19995;-65
2022/03/13 11:26:13;;;;;;;6.03;4.20;;;11.60;37.40;;;;;;6276141;22;20426;-63
2022/03/13 11:28:45;;;;;;;4.55;3.67;;;11.50;37.30;;;;;;6276772;22;20000;-63
2022/03/13 11:31:35;;;;;;;6.63;4.30;;;11.60;38.10;;;;;;6276534;22;20419;-63
2022/03/13 11:34:13;;;;;;;6.40;3.93;;;11.60;38.50;;;;;;6276359;22;20010;-63
2022/03/13 11:36:41;;;;;;;4.57;3.38;;;11.70;38.30;;;;;;6276363;22;20079;-63
2022/03/13 11:39:08;;;;;;;8.60;4.00;;;11.60;37.30;;;;;;6276829;22;19999;-63
2022/03/13 11:41:43;;;;;;;6.17;4.23;;;11.70;38.10;;;;;;6276616;22;20022;-63
2022/03/13 11:44:18;;;;;;;9.70;3.83;;;11.80;38.80;;;;;;6276535;22;20004;-63
2022/03/13 11:46:45;;;;;;;11.07;4.13;;;11.90;38.10;;;;;;6276020;22;20016;-63
2022/03/13 11:49:20;;;;;;;5.90;4.45;;;12.10;37.70;;;;;;6276462;22;20048;-63
2022/03/13 11:51:46;;;;;;;5.70;4.28;;;12.10;37.10;;;;;;6276133;22;20007;-74
2022/03/13 11:54:15;;;;;;;7.35;4.60;;;12.00;36.60;;;;;;6276744;22;19999;-71
2022/03/13 11:56:49;;;;;;;8.05;4.30;;;12.00;36.30;;;;;;6276609;22;20003;-63
2022/03/13 11:59:18;;;;;;;8.98;4.63;;;12.10;36.50;;;;;;6276276;22;20004;-63
2022/03/13 12:01:45;;;;;;;5.32;3.80;;;12.10;36.70;;;;;;6276146;22;20011;-62
2022/03/13 12:04:11;;;;;;;6.03;3.92;;;12.10;38.10;;;;;;6276717;22;20026;-63
2022/03/13 12:06:41;;;;;;;4.65;3.70;;;12.20;38.70;;;;;;6276356;22;20438;-63
2022/03/13 12:09:12;;;;;;;4.82;3.33;;;12.30;39.00;;;;;;6276459;22;20075;-64
2022/03/13 12:11:50;;;;;;;4.85;3.60;;;12.30;38.30;;;;;;6276295;22;19999;-63
2022/03/13 12:14:18;;;;;;;5.72;3.67;;;12.30;38.70;;;;;;6278098;22;19999;-65
2022/03/13 12:16:46;;;;;;;4.63;3.70;;;12.40;37.50;;;;;;6277995;22;20031;-63
2022/03/13 12:19:15;;;;;;;5.32;3.33;;;12.40;38.60;;;;;;6278055;22;20470;-65
2022/03/13 12:21:48;;;;;;;5.85;3.25;;;12.40;37.10;;;;;;6278392;22;20008;-63
2022/03/13 12:24:15;;;;;;;5.43;3.40;;;12.50;36.80;;;;;;6278105;22;19999;-65
2022/03/13 12:26:42;;;;;;;10.95;3.42;;;12.60;36.30;;;;;;6278123;22;20008;-63
2022/03/13 12:29:11;;;;;;;5.90;2.80;;;12.70;36.90;;;;;;6278955;22;20027;-76
2022/03/13 12:31:52;;;;;;;4.65;2.92;;;12.80;36.60;;;;;;6278914;22;19999;-65
2022/03/13 12:34:29;;;;;;;3.63;2.80;;;12.90;36.60;;;;;;6278241;22;20004;-65
2022/03/13 12:37:01;;;;;;;6.38;3.15;;;13.00;35.70;;;;;;6278415;22;20018;-65
2022/03/13 12:39:28;;;;;;;6.35;3.20;;;13.10;37.40;;;;;;6278387;22;20000;-65
2022/03/13 12:41:59;;;;;;;3.97;2.45;;;13.20;36.40;;;;;;6278113;22;20090;-65
2022/03/13 12:44:25;;;;;;;4.57;3.28;;;13.30;36.00;;;;;;6278344;22;20027;-65
2022/03/13 12:46:54;;;;;;;3.22;2.70;;;13.30;36.10;;;;;;6277573;22;20065;-65
2022/03/13 12:49:28;;;;;;;3.78;2.88;;;13.30;35.50;;;;;;6278183;22;20008;-65
2022/03/13 12:51:55;;;;;;;4.78;3.22;;;13.20;35.60;;;;;;6278032;22;20000;-64
2022/03/13 12:54:25;;;;;;;3.95;2.78;;;13.20;36.40;;;;;;6278374;22;20012;-65
2022/03/13 12:56:56;;;;;;;6.00;2.42;;;13.20;36.10;;;;;;6278268;22;20010;-65
2022/03/13 12:59:40;;;;;;;4.60;2.90;;;13.20;36.10;;;;;;6278166;22;20012;-65
2022/03/13 13:02:22;;;;;;;6.43;2.80;;;13.20;35.10;;;;;;6278461;22;20057;-65
2022/03/13 13:04:54;;;;;;;4.43;3.05;;;13.10;36.30;;;;;;6277665;22;20010;-65